createdAt,value
2018-07-09T00:01:43.624Z,4.20
2018-07-09T00:04:11.910Z,4.43
2018-07-09T00:06:40.125Z,4.10
2018-07-09T00:09:08.314Z,4.03
2018-07-09T00:11:36.578Z,4.50
2018-07-09T00:14:04.799Z,4.77
2018-07-09T00:16:33.034Z,5.07
2018-07-09T00:19:01.422Z,4.30
2018-07-09T00:21:29.643Z,4.10
2018-07-09T00:23:57.857Z,4.70
2018-07-09T00:26:26.082Z,3.97
2018-07-09T00:28:54.358Z,4.13
2018-07-09T00:31:22.598Z,4.83
2018-07-09T00:33:50.806Z,4.80
2018-07-09T00:36:19.027Z,4.70
2018-07-09T00:38:47.215Z,5.10
2018-07-09T00:41:15.554Z,4.50
2018-07-09T00:43:43.805Z,4.40
2018-07-09T00:46:12.145Z,4.47
2018-07-09T00:48:40.329Z,5.33
2018-07-09T00:51:08.546Z,4.70
2018-07-09T00:53:36.769Z,4.87
2018-07-09T00:56:04.761Z,5.67
2018-07-09T00:58:32.967Z,4.37
2018-07-09T01:01:01.188Z,4.63
2018-07-09T01:03:29.436Z,5.17
2018-07-09T01:05:57.726Z,4.93
2018-07-09T01:08:26.026Z,5.30
2018-07-09T01:11:05.764Z,5.00
2018-07-09T01:13:40.903Z,5.00
2018-07-09T01:16:09.980Z,5.70
2018-07-09T01:18:38.194Z,4.67
2018-07-09T01:21:08.991Z,4.40
2018-07-09T01:23:38.019Z,4.50
2018-07-09T01:26:06.414Z,4.30
2018-07-09T01:28:34.702Z,4.83
2018-07-09T01:31:02.923Z,4.27
2018-07-09T01:33:31.145Z,4.40
2018-07-09T01:35:59.349Z,4.00
2018-07-09T01:38:27.550Z,4.50
2018-07-09T01:40:55.540Z,4.20
2018-07-09T01:43:23.782Z,4.77
2018-07-09T01:45:52.118Z,4.63
2018-07-09T01:48:20.315Z,4.67
2018-07-09T01:50:48.564Z,4.20
2018-07-09T01:53:16.798Z,4.70
2018-07-09T01:55:44.974Z,4.83
2018-07-09T01:58:12.922Z,4.47
2018-07-09T02:00:41.195Z,4.40
2018-07-09T02:03:10.094Z,4.63
2018-07-09T02:05:38.327Z,4.40
2018-07-09T02:08:06.642Z,4.60
2018-07-09T02:10:34.866Z,4.20
2018-07-09T02:13:03.098Z,4.80
2018-07-09T02:15:31.317Z,4.00
2018-07-09T02:17:59.557Z,4.67
2018-07-09T02:20:27.812Z,4.80
2018-07-09T02:22:56.054Z,4.67
2018-07-09T02:25:24.394Z,4.93
2018-07-09T02:27:52.607Z,4.47
2018-07-09T02:30:21.164Z,4.57
2018-07-09T02:32:49.382Z,4.57
2018-07-09T02:35:17.624Z,4.60
2018-07-09T02:37:45.850Z,4.83
2018-07-09T02:40:14.071Z,4.80
2018-07-09T02:42:43.208Z,4.30
2018-07-09T02:45:11.388Z,4.60
2018-07-09T02:47:39.602Z,4.27
2018-07-09T02:50:07.859Z,4.67
2018-07-09T02:52:36.075Z,4.60
2018-07-09T02:55:04.532Z,4.50
2018-07-09T02:57:32.484Z,4.97
2018-07-09T03:00:00.725Z,4.17
2018-07-09T03:02:29.154Z,4.40
2018-07-09T03:04:57.402Z,4.50
2018-07-09T03:07:25.582Z,4.47
2018-07-09T03:09:53.794Z,4.90
2018-07-09T03:12:22.027Z,4.63
2018-07-09T03:14:50.303Z,5.27
2018-07-09T03:17:18.504Z,5.40
2018-07-09T03:19:46.756Z,4.83
2018-07-09T03:22:14.956Z,4.37
2018-07-09T03:24:43.187Z,4.77
2018-07-09T03:27:11.381Z,4.40
2018-07-09T03:29:39.661Z,4.87
2018-07-09T03:32:07.850Z,4.87
2018-07-09T03:34:36.239Z,4.73
2018-07-09T03:37:04.490Z,5.13
2018-07-09T03:39:32.734Z,5.57
2018-07-09T03:42:00.962Z,5.03
2018-07-09T03:44:28.910Z,4.83
2018-07-09T03:46:57.126Z,5.13
2018-07-09T03:49:25.366Z,4.90
2018-07-09T03:51:53.554Z,4.60
2018-07-09T03:54:21.609Z,4.70
2018-07-09T03:56:50.143Z,5.80
2018-07-09T03:59:18.382Z,5.30
2018-07-09T04:01:46.571Z,4.23
2018-07-09T04:04:14.762Z,5.07
2018-07-09T04:06:43.048Z,5.03
2018-07-09T04:09:11.271Z,4.90
2018-07-09T04:11:39.511Z,5.10
2018-07-09T04:14:07.814Z,5.30
2018-07-09T04:16:36.063Z,5.40
2018-07-09T04:19:04.638Z,5.03
2018-07-09T04:21:32.940Z,4.97
2018-07-09T04:24:01.171Z,4.70
2018-07-09T04:26:29.429Z,5.00
2018-07-09T04:28:57.638Z,5.03
2018-07-09T04:31:25.846Z,5.60
2018-07-09T04:33:54.048Z,5.23
2018-07-09T04:36:22.262Z,4.20
2018-07-09T04:38:50.495Z,5.00
2018-07-09T04:41:18.826Z,5.53
2018-07-09T04:43:47.078Z,5.60
2018-07-09T04:46:15.270Z,5.80
2018-07-09T04:48:43.477Z,4.70
2018-07-09T04:51:11.712Z,5.00
2018-07-09T04:53:39.925Z,5.77
2018-07-09T04:56:08.130Z,5.77
2018-07-09T04:58:36.358Z,6.07
2018-07-09T05:01:04.582Z,5.33
2018-07-09T05:03:32.974Z,5.73
2018-07-09T05:06:01.170Z,5.60
2018-07-09T05:08:29.480Z,5.60
2018-07-09T05:10:57.671Z,5.93
2018-07-09T05:13:25.906Z,5.77
2018-07-09T05:15:54.121Z,5.90
2018-07-09T05:18:22.319Z,6.17
2018-07-09T05:20:50.497Z,5.57
2018-07-09T05:23:18.861Z,7.20
2018-07-09T05:25:47.186Z,5.80
2018-07-09T05:28:15.398Z,6.27
2018-07-09T05:30:43.602Z,6.37
2018-07-09T05:33:11.857Z,6.53
2018-07-09T05:35:40.090Z,6.60
2018-07-09T05:38:08.306Z,6.20
2018-07-09T05:40:36.530Z,6.67
2018-07-09T05:43:04.925Z,6.97
2018-07-09T05:45:33.115Z,8.30
2018-07-09T05:48:01.728Z,6.70
2018-07-09T05:50:29.914Z,7.53
2018-07-09T05:52:58.178Z,9.07
2018-07-09T05:55:26.420Z,14.20
2018-07-09T05:57:54.681Z,6.80
2018-07-09T06:00:22.913Z,7.80
2018-07-09T06:02:51.117Z,7.30
2018-07-09T06:05:19.350Z,7.30
2018-07-09T06:07:47.567Z,11.10
2018-07-09T06:10:15.776Z,7.87
2018-07-09T06:12:44.054Z,8.13
2018-07-09T06:15:12.251Z,8.30
2018-07-09T06:17:40.466Z,13.30
2018-07-09T06:20:08.680Z,9.57
2018-07-09T06:22:36.898Z,8.13
2018-07-09T06:25:05.126Z,6.97
2018-07-09T06:27:33.367Z,7.00
2018-07-09T06:30:01.568Z,7.70
2018-07-09T06:32:29.955Z,9.23
2018-07-09T06:34:58.159Z,8.20
2018-07-09T06:37:26.350Z,8.80
2018-07-09T06:39:54.625Z,7.73
2018-07-09T06:42:22.831Z,6.80
2018-07-09T06:44:51.047Z,7.57
2018-07-09T06:47:19.273Z,7.00
2018-07-09T06:49:48.218Z,8.27
2018-07-09T06:52:16.402Z,7.50
2018-07-09T06:54:44.674Z,8.33
2018-07-09T06:57:12.622Z,7.63
2018-07-09T06:59:40.830Z,6.93
2018-07-09T07:02:08.773Z,7.30
2018-07-09T07:04:36.991Z,7.33
2018-07-09T07:07:05.213Z,6.60
2018-07-09T07:09:33.466Z,9.37
2018-07-09T07:12:01.716Z,7.60
2018-07-09T07:14:30.258Z,7.80
2018-07-09T07:16:58.499Z,8.50
2018-07-09T07:19:26.738Z,6.40
2018-07-09T07:21:54.974Z,6.97
2018-07-09T07:24:23.243Z,6.20
2018-07-09T07:26:51.539Z,6.47
2018-07-09T07:29:19.794Z,7.37
2018-07-09T07:31:47.991Z,7.00
2018-07-09T07:34:16.262Z,7.17
2018-07-09T07:36:44.738Z,6.97
2018-07-09T07:39:13.001Z,6.97
2018-07-09T07:41:41.212Z,6.43
2018-07-09T07:44:09.459Z,7.17
2018-07-09T07:46:37.657Z,6.60
2018-07-09T07:49:05.960Z,7.60
2018-07-09T07:51:33.904Z,6.83
2018-07-09T07:54:02.171Z,7.43
2018-07-09T07:56:30.457Z,11.20
2018-07-09T07:58:58.486Z,6.10
2018-07-09T08:01:27.267Z,7.37
2018-07-09T08:03:55.501Z,6.33
2018-07-09T08:06:23.731Z,5.77
2018-07-09T08:08:52.007Z,6.10
2018-07-09T08:11:20.274Z,7.47
2018-07-09T08:13:48.545Z,7.30
2018-07-09T08:16:16.763Z,5.80
2018-07-09T08:18:45.061Z,5.90
2018-07-09T08:21:13.434Z,5.60
2018-07-09T08:23:41.759Z,6.50
2018-07-09T08:26:10.011Z,5.97
2018-07-09T08:28:38.230Z,5.53
2018-07-09T08:31:06.495Z,5.43
2018-07-09T08:33:34.754Z,6.03
2018-07-09T08:36:02.954Z,5.53
2018-07-09T08:38:31.224Z,6.80
2018-07-09T08:40:59.429Z,6.60
2018-07-09T08:43:27.466Z,5.73
2018-07-09T08:45:55.698Z,5.63
2018-07-09T08:48:23.910Z,6.43
2018-07-09T08:50:52.158Z,5.63
2018-07-09T08:53:20.384Z,5.93
2018-07-09T08:55:48.628Z,5.97
2018-07-09T08:58:16.829Z,6.80
2018-07-09T09:00:45.075Z,5.37
2018-07-09T09:03:13.290Z,7.17
2018-07-09T09:05:42.384Z,5.87
2018-07-09T09:08:10.741Z,5.87
2018-07-09T09:10:39.011Z,9.33
2018-07-09T09:13:07.318Z,5.13
2018-07-09T09:15:35.565Z,7.53
2018-07-09T09:18:03.758Z,5.50
2018-07-09T09:20:32.565Z,4.93
2018-07-09T09:23:00.799Z,5.33
2018-07-09T09:25:29.074Z,4.37
2018-07-09T09:27:57.564Z,6.40
2018-07-09T09:30:25.775Z,5.17
2018-07-09T09:32:53.806Z,6.10
2018-07-09T09:35:22.079Z,6.10
2018-07-09T09:37:50.375Z,5.50
2018-07-09T09:40:18.619Z,7.27
2018-07-09T09:42:46.937Z,5.07
2018-07-09T09:45:15.222Z,5.07
2018-07-09T09:47:43.534Z,6.70
2018-07-09T09:50:11.998Z,6.30
2018-07-09T09:52:40.233Z,4.37
2018-07-09T09:55:08.534Z,5.60
2018-07-09T09:57:37.018Z,5.10
2018-07-09T10:00:05.245Z,4.27
2018-07-09T10:02:33.547Z,5.23
2018-07-09T10:05:01.794Z,8.00
2018-07-09T10:07:29.990Z,6.10
2018-07-09T10:09:58.251Z,5.10
2018-07-09T10:12:26.788Z,5.60
2018-07-09T10:14:55.001Z,6.20
2018-07-09T10:17:23.192Z,5.60
2018-07-09T10:19:51.398Z,5.60
2018-07-09T10:22:19.634Z,5.77
2018-07-09T10:24:47.853Z,4.10
2018-07-09T10:27:16.074Z,4.50
2018-07-09T10:29:44.282Z,4.20
2018-07-09T10:32:12.507Z,6.83
2018-07-09T10:34:40.734Z,5.47
2018-07-09T10:37:08.966Z,6.07
2018-07-09T10:39:37.292Z,5.63
2018-07-09T10:42:05.447Z,5.60
2018-07-09T10:44:34.282Z,6.00
2018-07-09T10:47:02.563Z,5.50
2018-07-09T10:49:30.741Z,5.00
2018-07-09T10:51:58.966Z,5.03
2018-07-09T10:54:27.187Z,7.80
2018-07-09T10:56:55.926Z,4.57
2018-07-09T10:59:24.176Z,5.83
2018-07-09T11:01:52.418Z,4.20
2018-07-09T11:04:20.620Z,5.53
2018-07-09T11:06:48.929Z,4.90
2018-07-09T11:09:17.228Z,8.47
2018-07-09T11:11:45.602Z,5.23
2018-07-09T11:14:13.839Z,4.27
2018-07-09T11:16:42.099Z,3.93
2018-07-09T11:19:10.325Z,5.63
2018-07-09T11:21:38.681Z,5.13
2018-07-09T11:24:06.918Z,6.00
2018-07-09T11:26:35.190Z,7.30
2018-07-09T11:29:03.418Z,4.97
2018-07-09T11:31:31.755Z,7.30
2018-07-09T11:33:59.993Z,4.80
2018-07-09T11:36:28.231Z,4.10
2018-07-09T11:38:57.618Z,5.67
2018-07-09T11:41:25.928Z,5.33
2018-07-09T11:43:54.167Z,7.13
2018-07-09T11:46:22.425Z,5.10
2018-07-09T11:48:50.646Z,5.40
2018-07-09T11:51:18.904Z,3.90
2018-07-09T11:53:47.132Z,4.70
2018-07-09T11:56:15.078Z,4.43
2018-07-09T11:58:43.391Z,3.97
2018-07-09T12:01:11.730Z,4.17
2018-07-09T12:03:39.930Z,3.60
2018-07-09T12:06:08.174Z,3.50
2018-07-09T12:08:36.521Z,3.73
2018-07-09T12:11:04.793Z,3.60
2018-07-09T12:13:33.899Z,7.90
2018-07-09T12:16:02.127Z,3.10
2018-07-09T12:18:30.618Z,5.40
2018-07-09T12:20:58.725Z,3.73
2018-07-09T12:23:27.196Z,3.67
2018-07-09T12:25:55.429Z,3.87
2018-07-09T12:28:23.674Z,3.90
2018-07-09T12:30:51.966Z,3.90
2018-07-09T12:33:20.210Z,4.73
2018-07-09T12:35:48.514Z,4.27
2018-07-09T12:38:16.809Z,4.00
2018-07-09T12:40:45.643Z,4.20
2018-07-09T12:43:14.758Z,4.17
2018-07-09T12:45:43.186Z,4.50
2018-07-09T12:48:11.468Z,4.00
2018-07-09T12:50:39.497Z,4.03
2018-07-09T12:53:08.156Z,5.03
2018-07-09T12:55:36.655Z,5.07
2018-07-09T12:58:05.037Z,4.47
2018-07-09T13:00:33.883Z,4.40
2018-07-09T13:03:02.294Z,4.80
2018-07-09T13:05:31.351Z,7.57
2018-07-09T13:07:59.361Z,5.20
2018-07-09T13:10:27.768Z,4.50
2018-07-09T13:12:56.060Z,4.17
2018-07-09T13:15:24.337Z,4.13
2018-07-09T13:17:52.864Z,4.77
2018-07-09T13:20:21.504Z,4.00
2018-07-09T13:22:49.741Z,4.17
2018-07-09T13:25:18.072Z,3.97
2018-07-09T13:27:46.157Z,4.53
2018-07-09T13:30:15.478Z,3.60
2018-07-09T13:32:43.760Z,3.77
2018-07-09T13:35:12.079Z,4.13
2018-07-09T13:37:40.621Z,4.23
2018-07-09T13:40:10.168Z,3.70
2018-07-09T13:42:40.075Z,4.07
2018-07-09T13:45:10.299Z,7.23
2018-07-09T13:47:38.643Z,5.80
2018-07-09T13:50:07.926Z,4.30
2018-07-09T13:52:36.726Z,4.00
2018-07-09T13:55:05.826Z,4.30
2018-07-09T13:57:34.416Z,3.40
2018-07-09T14:00:02.854Z,3.17
2018-07-09T14:02:31.833Z,3.37
2018-07-09T14:05:00.289Z,3.47
2018-07-09T14:07:28.547Z,3.70
2018-07-09T14:09:56.881Z,3.07
2018-07-09T14:12:27.035Z,2.57
2018-07-09T14:14:58.558Z,3.93
2018-07-09T14:17:28.196Z,3.63
2018-07-09T14:20:19.115Z,3.30
2018-07-09T14:22:47.477Z,3.67
2018-07-09T14:25:16.037Z,3.20
2018-07-09T14:27:44.715Z,4.37
2018-07-09T14:30:12.683Z,3.20
2018-07-09T14:32:41.169Z,4.10
2018-07-09T14:35:09.531Z,3.30
2018-07-09T14:37:37.516Z,3.30
2018-07-09T14:40:06.439Z,4.40
2018-07-09T14:42:34.775Z,3.00
2018-07-09T14:45:03.490Z,3.37
2018-07-09T14:47:31.978Z,2.87
2018-07-09T14:50:00.567Z,2.57
2018-07-09T14:52:29.630Z,4.00
2018-07-09T14:54:57.842Z,3.17
2018-07-09T14:57:26.083Z,2.90
2018-07-09T14:59:54.338Z,3.47
2018-07-09T15:02:23.291Z,3.70
2018-07-09T15:04:51.730Z,3.20
2018-07-09T15:07:19.959Z,3.60
2018-07-09T15:09:48.240Z,3.50
2018-07-09T15:12:17.538Z,2.53
2018-07-09T15:14:46.974Z,3.37
2018-07-09T15:17:15.023Z,2.77
2018-07-09T15:19:43.672Z,2.60
2018-07-09T15:22:11.894Z,2.80
2018-07-09T15:24:40.182Z,2.20
2018-07-09T15:27:08.169Z,2.50
2018-07-09T15:29:37.380Z,2.73
2018-07-09T15:32:17.333Z,3.00
2018-07-09T15:34:46.259Z,2.50
2018-07-09T15:37:14.810Z,2.93
2018-07-09T15:39:43.835Z,2.60
2018-07-09T15:42:12.127Z,2.67
2018-07-09T15:44:40.461Z,2.30
2018-07-09T15:47:08.987Z,2.57
2018-07-09T15:49:37.505Z,4.73
2018-07-09T15:52:05.865Z,2.70
2018-07-09T15:54:33.889Z,2.80
2018-07-09T15:57:02.123Z,3.23
2018-07-09T15:59:30.518Z,2.80
2018-07-09T16:01:58.846Z,2.83
2018-07-09T16:04:27.090Z,2.80
2018-07-09T16:06:55.362Z,2.33
2018-07-09T16:09:23.583Z,2.90
2018-07-09T16:11:51.579Z,4.13
2018-07-09T16:14:19.856Z,2.93
2018-07-09T16:16:48.074Z,3.20
2018-07-09T16:19:16.357Z,3.60
2018-07-09T16:21:44.622Z,3.17
2018-07-09T16:24:12.890Z,7.37
2018-07-09T16:26:41.226Z,3.67
2018-07-09T16:29:09.590Z,3.30
2018-07-09T16:31:37.935Z,4.00
2018-07-09T16:34:06.382Z,4.60
2018-07-09T16:36:34.659Z,3.27
2018-07-09T16:39:03.716Z,3.33
2018-07-09T16:41:31.977Z,2.90
2018-07-09T16:44:00.355Z,4.60
2018-07-09T16:46:28.582Z,3.40
2018-07-09T16:48:56.844Z,3.77
2018-07-09T16:51:24.999Z,4.03
2018-07-09T16:53:53.243Z,3.40
2018-07-09T16:56:21.510Z,3.17
2018-07-09T16:58:49.782Z,3.60
2018-07-09T17:01:18.034Z,3.23
2018-07-09T17:03:46.281Z,3.20
2018-07-09T17:06:14.523Z,3.10
2018-07-09T17:08:42.760Z,3.67
2018-07-09T17:11:11.001Z,2.97
2018-07-09T17:13:38.953Z,4.53
2018-07-09T17:16:07.288Z,3.70
2018-07-09T17:18:35.486Z,3.13
2018-07-09T17:21:03.746Z,3.07
2018-07-09T17:23:31.959Z,3.63
2018-07-09T17:26:00.170Z,3.50
2018-07-09T17:28:29.402Z,3.87
2018-07-09T17:30:57.666Z,4.00
2018-07-09T17:33:25.905Z,4.37
2018-07-09T17:35:54.127Z,3.77
2018-07-09T17:38:22.394Z,5.00
2018-07-09T17:40:50.614Z,4.70
2018-07-09T17:43:18.834Z,5.60
2018-07-09T17:45:47.054Z,4.70
2018-07-09T17:48:15.280Z,3.87
2018-07-09T17:50:43.810Z,4.97
2018-07-09T17:53:12.037Z,4.27
2018-07-09T17:55:40.287Z,4.33
2018-07-09T17:58:08.470Z,4.80
2018-07-09T18:00:36.743Z,4.60
2018-07-09T18:03:05.075Z,4.60
2018-07-09T18:05:33.316Z,4.60
2018-07-09T18:08:01.597Z,4.57
2018-07-09T18:10:29.841Z,5.47
2018-07-09T18:12:58.476Z,5.30
2018-07-09T18:15:26.775Z,5.37
2018-07-09T18:17:55.047Z,4.77
2018-07-09T18:20:23.306Z,4.43
2018-07-09T18:22:51.566Z,5.17
2018-07-09T18:25:19.816Z,4.57
2018-07-09T18:27:48.078Z,5.63
2018-07-09T18:30:16.395Z,5.13
2018-07-09T18:32:44.661Z,5.83
2018-07-09T18:35:12.922Z,4.90
2018-07-09T18:37:41.244Z,5.30
2018-07-09T18:40:09.455Z,5.37
2018-07-09T18:42:37.425Z,5.20
2018-07-09T18:45:05.923Z,5.30
2018-07-09T18:47:34.215Z,5.47
2018-07-09T18:50:02.427Z,5.40
2018-07-09T18:52:31.514Z,6.50
2018-07-09T18:54:59.843Z,5.20
2018-07-09T18:57:28.178Z,4.50
2018-07-09T18:59:56.398Z,4.63
2018-07-09T19:02:24.860Z,5.47
2018-07-09T19:04:52.797Z,5.50
2018-07-09T19:07:27.257Z,5.67
2018-07-09T19:09:55.473Z,5.20
2018-07-09T19:12:24.004Z,5.77
2018-07-09T19:14:52.542Z,5.80
2018-07-09T19:18:00.458Z,6.07
2018-07-09T19:20:39.940Z,6.13
2018-07-09T19:23:07.941Z,5.53
2018-07-09T19:25:36.190Z,6.17
2018-07-09T19:28:04.438Z,4.67
2018-07-09T19:30:31.650Z,5.70
2018-07-09T19:32:58.949Z,6.13
2018-07-09T19:35:26.185Z,6.70
2018-07-09T19:37:53.873Z,6.83
2018-07-09T19:40:20.632Z,5.80
2018-07-09T19:42:48.078Z,6.27
2018-07-09T19:45:15.271Z,6.00
2018-07-09T19:47:42.521Z,5.70
2018-07-09T19:50:09.674Z,6.17
2018-07-09T19:52:36.886Z,6.30
2018-07-09T19:55:04.159Z,5.50
2018-07-09T19:57:31.334Z,5.47
2018-07-09T19:59:58.583Z,6.40
2018-07-09T20:02:25.797Z,6.80
2018-07-09T20:04:53.023Z,6.60
2018-07-09T20:07:20.210Z,6.07
2018-07-09T20:09:52.694Z,6.47
2018-07-09T20:12:25.217Z,5.23
2018-07-09T20:14:57.670Z,6.40
2018-07-09T20:17:28.709Z,6.70
2018-07-09T20:19:55.885Z,6.10
2018-07-09T20:22:23.087Z,6.10
2018-07-09T20:24:50.287Z,6.70
2018-07-09T20:27:17.490Z,6.73
2018-07-09T20:29:44.670Z,6.27
2018-07-09T20:32:11.875Z,7.30
2018-07-09T20:34:39.327Z,7.60
2018-07-09T20:37:06.502Z,7.73
2018-07-09T20:39:33.698Z,7.77
2018-07-09T20:42:01.104Z,6.50
2018-07-09T20:44:28.290Z,7.33
2018-07-09T20:46:55.503Z,7.00
2018-07-09T20:49:22.676Z,6.97
2018-07-09T20:51:49.873Z,7.43
2018-07-09T20:54:17.073Z,7.00
2018-07-09T20:56:44.270Z,6.30
2018-07-09T20:59:11.460Z,6.73
2018-07-09T21:01:38.666Z,7.63
2018-07-09T21:04:11.235Z,7.67
2018-07-09T21:06:38.449Z,8.00
2018-07-09T21:09:05.696Z,7.60
2018-07-09T21:11:33.102Z,8.07
2018-07-09T21:14:00.569Z,7.53
2018-07-09T21:16:28.064Z,7.77
2018-07-09T21:18:55.254Z,8.30
2018-07-09T21:21:26.662Z,7.83
2018-07-09T21:23:54.075Z,7.53
2018-07-09T21:26:21.540Z,7.07
2018-07-09T21:28:49.059Z,6.70
2018-07-09T21:31:16.272Z,7.50
2018-07-09T21:33:43.896Z,6.50
2018-07-09T21:36:11.527Z,6.47
2018-07-09T21:38:39.241Z,6.60
2018-07-09T21:41:06.439Z,6.67
2018-07-09T21:43:33.756Z,6.53
2018-07-09T21:46:00.890Z,6.13
2018-07-09T21:48:29.776Z,6.20
2018-07-09T21:50:56.060Z,7.00
2018-07-09T21:53:24.387Z,6.53
2018-07-09T21:55:51.828Z,6.70
2018-07-09T21:58:19.042Z,6.77
2018-07-09T22:00:46.331Z,6.03
2018-07-09T22:03:13.546Z,6.20
2018-07-09T22:05:40.746Z,6.87
2018-07-09T22:08:07.938Z,5.80
2018-07-09T22:10:35.139Z,6.63
2018-07-09T22:13:02.618Z,6.47
2018-07-09T22:15:30.126Z,6.33
2018-07-09T22:17:57.356Z,5.90
2018-07-09T22:20:24.542Z,6.77
2018-07-09T22:22:51.742Z,7.40
2018-07-09T22:25:18.936Z,7.40
2018-07-09T22:27:46.128Z,7.60
2018-07-09T22:30:13.570Z,8.00
2018-07-09T22:32:42.130Z,6.73
2018-07-09T22:35:10.327Z,9.13
2018-07-09T22:37:38.570Z,8.60
2018-07-09T22:40:06.804Z,8.93
2018-07-09T22:42:34.753Z,7.90
2018-07-09T22:45:03.015Z,7.17
2018-07-09T22:47:31.222Z,7.77
2018-07-09T22:49:59.422Z,7.43
2018-07-09T22:52:27.645Z,8.00
2018-07-09T22:55:07.180Z,7.00
2018-07-09T22:57:35.391Z,7.37
2018-07-09T23:00:03.663Z,7.90
2018-07-09T23:02:31.870Z,6.23
2018-07-09T23:05:00.075Z,6.00
2018-07-09T23:07:28.322Z,5.93
2018-07-09T23:10:07.614Z,5.60
2018-07-09T23:12:41.222Z,5.20
2018-07-09T23:15:30.798Z,5.33
2018-07-09T23:18:10.574Z,5.37
2018-07-09T23:21:00.887Z,5.80
2018-07-09T23:23:28.066Z,5.47
2018-07-09T23:25:55.294Z,6.03
2018-07-09T23:28:22.474Z,5.50
2018-07-09T23:30:49.922Z,5.40
2018-07-09T23:33:17.380Z,5.90
2018-07-09T23:35:44.694Z,4.77
2018-07-09T23:38:11.890Z,5.50
2018-07-09T23:40:39.069Z,5.70
2018-07-09T23:43:06.267Z,5.13
2018-07-09T23:45:33.479Z,5.60
2018-07-09T23:48:00.678Z,6.00
2018-07-09T23:50:27.855Z,5.70
2018-07-09T23:52:55.114Z,5.60
2018-07-09T23:55:22.287Z,5.43
